sensor_id;sensor_type;location;lat;lon;timestamp;pressure;altitude;pressure_sealevel;temperature;humidity
11198;BME280;5655;48.744;9.162;2023-08-24T00:01:25;96413.13;;;24.45;100.00
11198;BME280;5655;48.744;9.162;2023-08-24T00:03:51;96424.97;;;24.42;100.00
11198;BME280;5655;48.744;9.162;2023-08-24T00:06:16;96420.75;;;24.50;100.00
11198;BME280;5655;48.744;9.162;2023-08-24T00:08:42;96412.34;;;24.35;100.00
11198;BME280;5655;48.744;9.162;2023-08-24T00:11:07;96415.22;;;24.32;100.00
11198;BME280;5655;48.744;9.162;2023-08-24T00:13:33;96414.66;;;24.55;100.00
11198;BME280;5655;48.744;9.162;2023-08-24T00:15:58;96416.16;;;24.38;100.00
11198;BME280;5655;48.744;9.162;2023-08-24T00:18:24;96413.41;;;24.29;100.00
11198;BME280;5655;48.744;9.162;2023-08-24T00:20:49;96408.22;;;24.31;100.00
11198;BME280;5655;48.744;9.162;2023-08-24T00:23:17;96405.53;;;24.40;100.00
11198;BME280;5655;48.744;9.162;2023-08-24T00:25:43;96410.69;;;24.47;100.00
11198;BME280;5655;48.744;9.162;2023-08-24T00:28:08;96400.38;;;24.51;100.00
11198;BME280;5655;48.744;9.162;2023-08-24T00:30:34;96402.84;;;24.67;100.00
11198;BME280;5655;48.744;9.162;2023-08-24T00:32:59;96401.59;;;24.50;100.00
11198;BME280;5655;48.744;9.162;2023-08-24T00:35:25;96401.91;;;24.52;100.00
11198;BME280;5655;48.744;9.162;2023-08-24T00:37:50;96392.13;;;24.33;100.00
11198;BME280;5655;48.744;9.162;2023-08-24T00:40:16;96388.81;;;24.47;100.00
11198;BME280;5655;48.744;9.162;2023-08-24T00:42:43;96380.25;;;24.27;100.00
11198;BME280;5655;48.744;9.162;2023-08-24T00:45:11;96379.28;;;24.12;100.00
11198;BME280;5655;48.744;9.162;2023-08-24T00:47:37;96377.38;;;24.00;100.00
11198;BME280;5655;48.744;9.162;2023-08-24T00:50:04;96374.56;;;23.72;100.00
11198;BME280;5655;48.744;9.162;2023-08-24T00:52:31;96371.44;;;23.61;100.00
11198;BME280;5655;48.744;9.162;2023-08-24T00:54:58;96371.69;;;23.45;100.00
11198;BME280;5655;48.744;9.162;2023-08-24T00:57:24;96371.59;;;23.36;100.00
11198;BME280;5655;48.744;9.162;2023-08-24T00:59:49;96374.81;;;23.22;100.00
11198;BME280;5655;48.744;9.162;2023-08-24T01:02:15;96368.94;;;23.01;100.00
11198;BME280;5655;48.744;9.162;2023-08-24T01:04:43;96357.38;;;22.97;100.00
11198;BME280;5655;48.744;9.162;2023-08-24T01:07:09;96355.72;;;23.00;100.00
11198;BME280;5655;48.744;9.162;2023-08-24T01:09:35;96361.09;;;22.69;100.00
11198;BME280;5655;48.744;9.162;2023-08-24T01:12:38;96353.66;;;22.91;100.00
11198;BME280;5655;48.744;9.162;2023-08-24T01:15:12;96359.44;;;22.72;100.00
11198;BME280;5655;48.744;9.162;2023-08-24T01:17:42;96358.81;;;22.89;100.00
11198;BME280;5655;48.744;9.162;2023-08-24T01:20:08;96360.16;;;22.85;100.00
11198;BME280;5655;48.744;9.162;2023-08-24T01:25:27;96350.69;;;22.77;100.00
11198;BME280;5655;48.744;9.162;2023-08-24T01:27:58;96345.34;;;22.73;100.00
11198;BME280;5655;48.744;9.162;2023-08-24T01:30:24;96346.88;;;22.61;100.00
11198;BME280;5655;48.744;9.162;2023-08-24T01:32:56;96330.13;;;22.50;100.00
11198;BME280;5655;48.744;9.162;2023-08-24T01:35:21;96337.06;;;22.64;100.00
11198;BME280;5655;48.744;9.162;2023-08-24T01:37:46;96327.88;;;22.36;100.00
11198;BME280;5655;48.744;9.162;2023-08-24T01:40:23;96341.44;;;22.61;100.00
11198;BME280;5655;48.744;9.162;2023-08-24T01:42:55;96335.16;;;22.52;100.00
11198;BME280;5655;48.744;9.162;2023-08-24T01:45:24;96337.28;;;22.57;100.00
11198;BME280;5655;48.744;9.162;2023-08-24T01:47:54;96336.72;;;22.62;100.00
11198;BME280;5655;48.744;9.162;2023-08-24T01:50:20;96328.16;;;22.51;100.00
11198;BME280;5655;48.744;9.162;2023-08-24T01:52:45;96329.34;;;22.50;100.00
11198;BME280;5655;48.744;9.162;2023-08-24T01:55:11;96322.09;;;22.34;100.00
11198;BME280;5655;48.744;9.162;2023-08-24T01:57:37;96328.41;;;22.31;100.00
11198;BME280;5655;48.744;9.162;2023-08-24T02:00:03;96320.41;;;22.49;100.00
11198;BME280;5655;48.744;9.162;2023-08-24T02:02:31;96318.09;;;22.48;100.00
11198;BME280;5655;48.744;9.162;2023-08-24T02:04:58;96330.06;;;22.63;100.00
11198;BME280;5655;48.744;9.162;2023-08-24T02:07:23;96323.91;;;22.50;100.00
11198;BME280;5655;48.744;9.162;2023-08-24T02:09:48;96329.34;;;22.50;100.00
11198;BME280;5655;48.744;9.162;2023-08-24T02:12:14;96324.22;;;22.52;100.00
11198;BME280;5655;48.744;9.162;2023-08-24T02:14:39;96334.00;;;22.62;100.00
11198;BME280;5655;48.744;9.162;2023-08-24T02:17:04;96336.00;;;22.49;100.00
11198;BME280;5655;48.744;9.162;2023-08-24T02:19:30;96335.38;;;22.45;100.00
11198;BME280;5655;48.744;9.162;2023-08-24T02:21:55;96321.97;;;22.38;100.00
11198;BME280;5655;48.744;9.162;2023-08-24T02:24:20;96321.31;;;22.46;100.00
11198;BME280;5655;48.744;9.162;2023-08-24T02:26:45;96326.78;;;22.68;100.00
11198;BME280;5655;48.744;9.162;2023-08-24T02:29:11;96331.47;;;22.68;100.00
11198;BME280;5655;48.744;9.162;2023-08-24T02:31:36;96337.69;;;22.68;100.00
11198;BME280;5655;48.744;9.162;2023-08-24T02:34:01;96340.09;;;22.66;100.00
11198;BME280;5655;48.744;9.162;2023-08-24T02:36:27;96324.88;;;22.56;100.00
11198;BME280;5655;48.744;9.162;2023-08-24T02:38:53;96321.69;;;22.57;100.00
11198;BME280;5655;48.744;9.162;2023-08-24T02:41:19;96316.34;;;22.54;100.00
11198;BME280;5655;48.744;9.162;2023-08-24T02:43:44;96320.06;;;22.60;100.00
11198;BME280;5655;48.744;9.162;2023-08-24T02:46:09;96321.00;;;22.66;100.00
11198;BME280;5655;48.744;9.162;2023-08-24T02:48:35;96330.25;;;22.81;100.00
11198;BME280;5655;48.744;9.162;2023-08-24T02:51:03;96321.44;;;22.77;100.00
11198;BME280;5655;48.744;9.162;2023-08-24T02:53:29;96309.28;;;22.78;100.00
11198;BME280;5655;48.744;9.162;2023-08-24T02:55:55;96312.03;;;23.00;100.00
11198;BME280;5655;48.744;9.162;2023-08-24T02:58:20;96310.88;;;22.88;100.00
11198;BME280;5655;48.744;9.162;2023-08-24T03:00:46;96313.25;;;22.77;100.00
11198;BME280;5655;48.744;9.162;2023-08-24T03:03:13;96303.72;;;22.82;100.00
11198;BME280;5655;48.744;9.162;2023-08-24T03:05:38;96309.56;;;23.15;100.00
11198;BME280;5655;48.744;9.162;2023-08-24T03:08:03;96317.16;;;23.20;100.00
11198;BME280;5655;48.744;9.162;2023-08-24T03:10:30;96313.81;;;23.16;100.00
11198;BME280;5655;48.744;9.162;2023-08-24T03:12:55;96313.63;;;23.10;100.00
11198;BME280;5655;48.744;9.162;2023-08-24T03:15:20;96301.00;;;23.03;100.00
11198;BME280;5655;48.744;9.162;2023-08-24T03:17:46;96303.47;;;23.11;100.00
11198;BME280;5655;48.744;9.162;2023-08-24T03:20:12;96299.03;;;22.82;100.00
11198;BME280;5655;48.744;9.162;2023-08-24T03:22:40;96290.31;;;22.96;100.00
11198;BME280;5655;48.744;9.162;2023-08-24T03:25:06;96281.13;;;22.81;100.00
11198;BME280;5655;48.744;9.162;2023-08-24T03:27:31;96289.19;;;23.06;100.00
11198;BME280;5655;48.744;9.162;2023-08-24T03:29:57;96298.63;;;23.15;100.00
11198;BME280;5655;48.744;9.162;2023-08-24T03:32:22;96297.47;;;23.25;100.00
11198;BME280;5655;48.744;9.162;2023-08-24T03:34:48;96302.38;;;23.30;100.00
11198;BME280;5655;48.744;9.162;2023-08-24T03:37:13;96302.81;;;23.28;100.00
11198;BME280;5655;48.744;9.162;2023-08-24T03:39:40;96297.56;;;23.43;100.00
11198;BME280;5655;48.744;9.162;2023-08-24T03:42:06;96298.84;;;23.51;100.00
11198;BME280;5655;48.744;9.162;2023-08-24T03:44:31;96294.88;;;23.52;100.00
11198;BME280;5655;48.744;9.162;2023-08-24T03:46:57;96282.47;;;22.98;100.00
11198;BME280;5655;48.744;9.162;2023-08-24T03:49:22;96279.28;;;23.31;100.00
11198;BME280;5655;48.744;9.162;2023-08-24T03:51:48;96287.06;;;23.11;100.00
11198;BME280;5655;48.744;9.162;2023-08-24T03:54:13;96269.53;;;23.21;100.00
11198;BME280;5655;48.744;9.162;2023-08-24T03:56:39;96265.91;;;23.24;100.00
11198;BME280;5655;48.744;9.162;2023-08-24T03:59:04;96264.59;;;23.06;100.00
11198;BME280;5655;48.744;9.162;2023-08-24T04:01:30;96267.88;;;23.23;100.00
11198;BME280;5655;48.744;9.162;2023-08-24T04:03:55;96257.19;;;22.85;100.00
11198;BME280;5655;48.744;9.162;2023-08-24T04:06:20;96253.03;;;22.59;100.00
11198;BME280;5655;48.744;9.162;2023-08-24T04:08:46;96252.13;;;22.40;100.00
11198;BME280;5655;48.744;9.162;2023-08-24T04:11:11;96247.56;;;22.37;100.00
11198;BME280;5655;48.744;9.162;2023-08-24T04:13:36;96246.72;;;22.28;100.00
11198;BME280;5655;48.744;9.162;2023-08-24T04:16:02;96238.06;;;22.42;100.00
11198;BME280;5655;48.744;9.162;2023-08-24T04:18:29;96242.28;;;22.21;100.00
11198;BME280;5655;48.744;9.162;2023-08-24T04:20:54;96238.00;;;21.98;100.00
11198;BME280;5655;48.744;9.162;2023-08-24T04:23:26;96228.41;;;21.81;100.00
11198;BME280;5655;48.744;9.162;2023-08-24T04:25:53;96236.69;;;21.90;100.00
11198;BME280;5655;48.744;9.162;2023-08-24T04:28:18;96236.78;;;21.87;100.00
11198;BME280;5655;48.744;9.162;2023-08-24T04:30:53;96230.88;;;21.88;100.00
11198;BME280;5655;48.744;9.162;2023-08-24T04:33:19;96236.38;;;21.76;100.00
11198;BME280;5655;48.744;9.162;2023-08-24T04:35:48;96228.03;;;21.92;100.00
11198;BME280;5655;48.744;9.162;2023-08-24T04:38:14;96228.53;;;21.78;100.00
11198;BME280;5655;48.744;9.162;2023-08-24T04:40:54;96217.25;;;21.88;100.00
11198;BME280;5655;48.744;9.162;2023-08-24T04:43:20;96210.63;;;21.89;100.00
11198;BME280;5655;48.744;9.162;2023-08-24T04:45:48;96216.88;;;21.77;100.00
11198;BME280;5655;48.744;9.162;2023-08-24T04:48:14;96213.81;;;21.75;100.00
11198;BME280;5655;48.744;9.162;2023-08-24T04:50:41;96215.91;;;21.58;100.00
11198;BME280;5655;48.744;9.162;2023-08-24T04:53:07;96218.59;;;21.71;100.00
11198;BME280;5655;48.744;9.162;2023-08-24T04:55:32;96210.97;;;21.66;100.00
11198;BME280;5655;48.744;9.162;2023-08-24T04:57:57;96222.66;;;21.66;100.00
11198;BME280;5655;48.744;9.162;2023-08-24T05:00:23;96212.53;;;21.42;100.00
11198;BME280;5655;48.744;9.162;2023-08-24T05:02:48;96216.91;;;21.52;100.00
11198;BME280;5655;48.744;9.162;2023-08-24T05:05:13;96212.53;;;21.42;100.00
11198;BME280;5655;48.744;9.162;2023-08-24T05:07:39;96213.28;;;21.55;100.00
11198;BME280;5655;48.744;9.162;2023-08-24T05:10:05;96215.34;;;21.76;100.00
11198;BME280;5655;48.744;9.162;2023-08-24T05:12:31;96213.41;;;21.64;100.00
11198;BME280;5655;48.744;9.162;2023-08-24T05:14:58;96200.56;;;21.52;100.00
11198;BME280;5655;48.744;9.162;2023-08-24T05:17:24;96203.56;;;21.66;100.00
11198;BME280;5655;48.744;9.162;2023-08-24T05:19:53;96182.69;;;21.51;100.00
11198;BME280;5655;48.744;9.162;2023-08-24T05:22:18;96195.94;;;21.74;100.00
11198;BME280;5655;48.744;9.162;2023-08-24T05:24:44;96196.41;;;21.60;100.00
11198;BME280;5655;48.744;9.162;2023-08-24T05:27:09;96189.56;;;21.55;100.00
11198;BME280;5655;48.744;9.162;2023-08-24T05:29:34;96193.66;;;21.72;100.00
11198;BME280;5655;48.744;9.162;2023-08-24T05:31:59;96189.88;;;21.70;100.00
11198;BME280;5655;48.744;9.162;2023-08-24T05:34:25;96188.97;;;21.73;100.00
11198;BME280;5655;48.744;9.162;2023-08-24T05:36:51;96181.31;;;21.93;100.00
11198;BME280;5655;48.744;9.162;2023-08-24T05:39:16;96178.25;;;21.91;100.00
11198;BME280;5655;48.744;9.162;2023-08-24T05:41:41;96166.03;;;21.83;100.00
11198;BME280;5655;48.744;9.162;2023-08-24T05:44:07;96183.47;;;21.98;100.00
11198;BME280;5655;48.744;9.162;2023-08-24T05:46:32;96185.88;;;21.96;100.00
11198;BME280;5655;48.744;9.162;2023-08-24T05:48:58;96174.81;;;22.12;100.00
11198;BME280;5655;48.744;9.162;2023-08-24T05:51:24;96176.38;;;21.88;100.00
11198;BME280;5655;48.744;9.162;2023-08-24T05:53:49;96180.63;;;21.89;100.00
11198;BME280;5655;48.744;9.162;2023-08-24T05:56:15;96175.31;;;21.98;100.00
11198;BME280;5655;48.744;9.162;2023-08-24T05:58:40;96163.06;;;22.03;100.00
11198;BME280;5655;48.744;9.162;2023-08-24T06:01:06;96168.03;;;22.17;100.00
11198;BME280;5655;48.744;9.162;2023-08-24T06:03:31;96179.31;;;22.06;100.00
11198;BME280;5655;48.744;9.162;2023-08-24T06:06:03;96185.28;;;22.36;100.00
11198;BME280;5655;48.744;9.162;2023-08-24T06:08:29;96188.06;;;22.45;100.00
11198;BME280;5655;48.744;9.162;2023-08-24T06:10:56;96191.19;;;22.56;100.00
11198;BME280;5655;48.744;9.162;2023-08-24T06:13:21;96192.63;;;22.48;100.00
11198;BME280;5655;48.744;9.162;2023-08-24T06:15:46;96192.91;;;22.41;100.00
11198;BME280;5655;48.744;9.162;2023-08-24T06:18:12;96191.00;;;22.50;100.00
11198;BME280;5655;48.744;9.162;2023-08-24T06:20:37;96193.53;;;22.67;100.00
11198;BME280;5655;48.744;9.162;2023-08-24T06:23:02;96188.63;;;22.61;100.00
11198;BME280;5655;48.744;9.162;2023-08-24T06:25:28;96200.84;;;23.00;100.00
11198;BME280;5655;48.744;9.162;2023-08-24T06:27:53;96205.81;;;22.93;100.00
11198;BME280;5655;48.744;9.162;2023-08-24T06:30:18;96208.03;;;23.07;100.00
11198;BME280;5655;48.744;9.162;2023-08-24T06:32:44;96214.31;;;23.17;100.00
11198;BME280;5655;48.744;9.162;2023-08-24T06:35:10;96207.50;;;22.90;100.00
11198;BME280;5655;48.744;9.162;2023-08-24T06:37:39;96213.69;;;23.22;100.00
11198;BME280;5655;48.744;9.162;2023-08-24T06:40:05;96215.13;;;23.35;100.00
11198;BME280;5655;48.744;9.162;2023-08-24T06:42:31;96228.44;;;23.55;100.00
11198;BME280;5655;48.744;9.162;2023-08-24T06:44:56;96233.78;;;23.37;100.00
11198;BME280;5655;48.744;9.162;2023-08-24T06:47:21;96244.28;;;23.38;100.00
11198;BME280;5655;48.744;9.162;2023-08-24T06:49:47;96255.31;;;23.35;100.00
11198;BME280;5655;48.744;9.162;2023-08-24T06:52:12;96258.31;;;23.49;100.00
11198;BME280;5655;48.744;9.162;2023-08-24T06:54:37;96265.00;;;23.58;100.00
11198;BME280;5655;48.744;9.162;2023-08-24T06:57:03;96286.13;;;23.57;100.00
11198;BME280;5655;48.744;9.162;2023-08-24T06:59:28;96297.03;;;23.57;100.00
11198;BME280;5655;48.744;9.162;2023-08-24T07:01:54;96292.22;;;23.70;100.00
11198;BME280;5655;48.744;9.162;2023-08-24T07:04:19;96287.69;;;23.67;100.00
11198;BME280;5655;48.744;9.162;2023-08-24T07:06:44;96281.63;;;23.72;100.00
11198;BME280;5655;48.744;9.162;2023-08-24T07:09:10;96270.72;;;23.81;100.00
11198;BME280;5655;48.744;9.162;2023-08-24T07:11:35;96269.06;;;23.93;100.00
11198;BME280;5655;48.744;9.162;2023-08-24T07:14:00;96263.66;;;24.11;100.00
11198;BME280;5655;48.744;9.162;2023-08-24T07:16:26;96249.22;;;24.38;100.00
11198;BME280;5655;48.744;9.162;2023-08-24T07:18:51;96251.69;;;24.36;100.00
11198;BME280;5655;48.744;9.162;2023-08-24T07:21:16;96244.25;;;24.55;100.00
11198;BME280;5655;48.744;9.162;2023-08-24T07:23:42;96245.88;;;24.70;100.00
11198;BME280;5655;48.744;9.162;2023-08-24T07:26:08;96244.84;;;24.68;100.00
11198;BME280;5655;48.744;9.162;2023-08-24T07:28:34;96233.06;;;25.04;100.00
11198;BME280;5655;48.744;9.162;2023-08-24T07:31:09;96229.59;;;25.45;100.00
11198;BME280;5655;48.744;9.162;2023-08-24T07:33:38;96232.13;;;25.07;100.00
11198;BME280;5655;48.744;9.162;2023-08-24T07:36:05;96240.09;;;25.38;100.00
11198;BME280;5655;48.744;9.162;2023-08-24T07:38:30;96242.53;;;25.54;100.00
11198;BME280;5655;48.744;9.162;2023-08-24T07:40:56;96246.94;;;25.42;100.00
11198;BME280;5655;48.744;9.162;2023-08-24T07:43:22;96249.94;;;25.11;100.00
11198;BME280;5655;48.744;9.162;2023-08-24T07:45:47;96235.22;;;25.00;100.00
11198;BME280;5655;48.744;9.162;2023-08-24T07:48:13;96232.13;;;25.07;100.00
11198;BME280;5655;48.744;9.162;2023-08-24T07:50:38;96238.09;;;25.47;100.00
11198;BME280;5655;48.744;9.162;2023-08-24T07:53:03;96236.31;;;25.35;100.00
11198;BME280;5655;48.744;9.162;2023-08-24T07:55:29;96248.38;;;25.70;100.00
11198;BME280;5655;48.744;9.162;2023-08-24T07:57:55;96249.00;;;25.65;100.00
11198;BME280;5655;48.744;9.162;2023-08-24T08:00:20;96249.38;;;25.82;100.00
11198;BME280;5655;48.744;9.162;2023-08-24T08:02:49;96243.16;;;26.05;100.00
11198;BME280;5655;48.744;9.162;2023-08-24T08:05:14;96242.78;;;26.12;100.00
11198;BME280;5655;48.744;9.162;2023-08-24T08:07:40;96247.13;;;26.04;100.00
11198;BME280;5655;48.744;9.162;2023-08-24T08:10:05;96258.75;;;26.23;100.00
11198;BME280;5655;48.744;9.162;2023-08-24T08:12:31;96268.97;;;25.90;100.00
11198;BME280;5655;48.744;9.162;2023-08-24T08:14:57;96263.00;;;25.67;100.00
11198;BME280;5655;48.744;9.162;2023-08-24T08:17:22;96262.03;;;25.80;100.00
11198;BME280;5655;48.744;9.162;2023-08-24T08:19:48;96264.44;;;25.87;100.00
11198;BME280;5655;48.744;9.162;2023-08-24T08:22:14;96257.16;;;26.07;100.00
11198;BME280;5655;48.744;9.162;2023-08-24T08:24:39;96250.22;;;26.21;100.00
11198;BME280;5655;48.744;9.162;2023-08-24T08:27:04;96251.25;;;26.47;100.00
11198;BME280;5655;48.744;9.162;2023-08-24T08:29:30;96254.38;;;26.40;100.00
11198;BME280;5655;48.744;9.162;2023-08-24T08:31:55;96248.44;;;26.56;100.00
11198;BME280;5655;48.744;9.162;2023-08-24T08:34:20;96244.28;;;26.76;100.00
11198;BME280;5655;48.744;9.162;2023-08-24T08:36:46;96245.66;;;27.09;100.00
11198;BME280;5655;48.744;9.162;2023-08-24T08:39:11;96245.84;;;27.35;100.00
11198;BME280;5655;48.744;9.162;2023-08-24T08:41:42;96244.88;;;27.24;100.00
11198;BME280;5655;48.744;9.162;2023-08-24T08:44:09;96238.81;;;27.49;100.00
11198;BME280;5655;48.744;9.162;2023-08-24T08:46:36;96246.94;;;27.58;100.00
11198;BME280;5655;48.744;9.162;2023-08-24T08:49:01;96245.06;;;27.49;100.00
11198;BME280;5655;48.744;9.162;2023-08-24T08:51:28;96248.44;;;27.74;100.00
11198;BME280;5655;48.744;9.162;2023-08-24T08:53:54;96244.69;;;27.57;100.00
11198;BME280;5655;48.744;9.162;2023-08-24T08:56:20;96248.50;;;27.30;100.00
11198;BME280;5655;48.744;9.162;2023-08-24T08:58:45;96248.66;;;27.41;100.00
11198;BME280;5655;48.744;9.162;2023-08-24T09:01:12;96244.25;;;27.78;100.00
11198;BME280;5655;48.744;9.162;2023-08-24T09:03:39;96241.69;;;27.75;100.00
11198;BME280;5655;48.744;9.162;2023-08-24T09:06:04;96232.88;;;27.71;100.00
11198;BME280;5655;48.744;9.162;2023-08-24T09:08:30;96239.13;;;28.06;100.00
11198;BME280;5655;48.744;9.162;2023-08-24T09:10:58;96233.59;;;28.06;100.00
11198;BME280;5655;48.744;9.162;2023-08-24T09:13:23;96233.50;;;28.15;100.00
11198;BME280;5655;48.744;9.162;2023-08-24T09:15:51;96239.69;;;28.10;100.00
11198;BME280;5655;48.744;9.162;2023-08-24T09:18:17;96228.38;;;28.08;100.00
11198;BME280;5655;48.744;9.162;2023-08-24T09:20:42;96229.88;;;28.09;100.00
11198;BME280;5655;48.744;9.162;2023-08-24T09:23:17;96215.66;;;28.51;100.00
11198;BME280;5655;48.744;9.162;2023-08-24T09:25:48;96213.06;;;28.68;100.00
11198;BME280;5655;48.744;9.162;2023-08-24T09:28:13;96202.28;;;28.64;100.00
11198;BME280;5655;48.744;9.162;2023-08-24T09:30:39;96186.09;;;28.72;100.00
11198;BME280;5655;48.744;9.162;2023-08-24T09:33:09;96182.03;;;29.24;100.00
11198;BME280;5655;48.744;9.162;2023-08-24T09:35:35;96189.59;;;29.29;100.00
11198;BME280;5655;48.744;9.162;2023-08-24T09:40:45;96185.03;;;29.26;100.00
11198;BME280;5655;48.744;9.162;2023-08-24T09:43:13;96185.72;;;29.53;100.00
11198;BME280;5655;48.744;9.162;2023-08-24T09:45:47;96188.06;;;29.65;100.00
11198;BME280;5655;48.744;9.162;2023-08-24T09:48:13;96176.00;;;30.05;100.00
11198;BME280;5655;48.744;9.162;2023-08-24T09:50:39;96170.50;;;30.11;100.00
11198;BME280;5655;48.744;9.162;2023-08-24T09:53:05;96165.69;;;30.00;100.00
11198;BME280;5655;48.744;9.162;2023-08-24T09:55:34;96155.97;;;30.22;100.00
11198;BME280;5655;48.744;9.162;2023-08-24T09:58:03;96148.22;;;30.42;100.00
11198;BME280;5655;48.744;9.162;2023-08-24T10:00:29;96144.19;;;30.38;100.00
11198;BME280;5655;48.744;9.162;2023-08-24T10:02:55;96139.78;;;30.79;100.00
11198;BME280;5655;48.744;9.162;2023-08-24T10:05:24;96141.06;;;31.06;100.00
11198;BME280;5655;48.744;9.162;2023-08-24T10:07:55;96122.47;;;31.06;100.00
11198;BME280;5655;48.744;9.162;2023-08-24T10:10:23;96110.13;;;31.13;100.00
11198;BME280;5655;48.744;9.162;2023-08-24T10:12:57;96114.22;;;31.81;100.00
11198;BME280;5655;48.744;9.162;2023-08-24T10:15:24;96103.69;;;31.79;100.00
11198;BME280;5655;48.744;9.162;2023-08-24T10:17:52;96097.41;;;31.79;100.00
11198;BME280;5655;48.744;9.162;2023-08-24T10:20:19;96101.22;;;32.22;100.00
11198;BME280;5655;48.744;9.162;2023-08-24T10:22:46;96097.72;;;32.57;100.00
11198;BME280;5655;48.744;9.162;2023-08-24T10:25:11;96095.25;;;32.83;100.00
11198;BME280;5655;48.744;9.162;2023-08-24T10:27:39;96094.63;;;32.66;100.00
11198;BME280;5655;48.744;9.162;2023-08-24T10:30:10;96080.38;;;32.51;100.00
11198;BME280;5655;48.744;9.162;2023-08-24T10:32:36;96081.88;;;32.52;100.00
11198;BME280;5655;48.744;9.162;2023-08-24T10:35:02;96084.41;;;32.85;100.00
11198;BME280;5655;48.744;9.162;2023-08-24T10:37:28;96082.22;;;33.03;100.00
11198;BME280;5655;48.744;9.162;2023-08-24T10:39:53;96082.03;;;33.49;100.00
11198;BME280;5655;48.744;9.162;2023-08-24T10:42:19;96088.66;;;33.22;100.00
11198;BME280;5655;48.744;9.162;2023-08-24T10:44:46;96078.94;;;33.34;100.00
11198;BME280;5655;48.744;9.162;2023-08-24T10:47:14;96074.16;;;33.53;100.00
11198;BME280;5655;48.744;9.162;2023-08-24T10:49:44;96075.44;;;33.77;100.00
11198;BME280;5655;48.744;9.162;2023-08-24T10:55:02;96054.84;;;33.66;100.00
11198;BME280;5655;48.744;9.162;2023-08-24T10:57:38;96049.97;;;34.10;100.00
11198;BME280;5655;48.744;9.162;2023-08-24T11:00:05;96062.22;;;33.83;100.00
11198;BME280;5655;48.744;9.162;2023-08-24T11:02:47;96055.69;;;33.80;100.00
11198;BME280;5655;48.744;9.162;2023-08-24T11:05:23;96041.94;;;34.06;100.00
11198;BME280;5655;48.744;9.162;2023-08-24T11:08:05;96044.50;;;34.23;100.00
11198;BME280;5655;48.744;9.162;2023-08-24T11:10:45;96044.06;;;33.82;100.00
11198;BME280;5655;48.744;9.162;2023-08-24T11:13:15;96041.66;;;34.29;100.00
11198;BME280;5655;48.744;9.162;2023-08-24T11:15:48;96043.44;;;33.89;100.00
11198;BME280;5655;48.744;9.162;2023-08-24T11:18:23;96034.00;;;33.97;100.00
11198;BME280;5655;48.744;9.162;2023-08-24T11:21:07;96025.19;;;35.08;100.00
11198;BME280;5655;48.744;9.162;2023-08-24T11:23:32;96022.50;;;35.02;100.00
11198;BME280;5655;48.744;9.162;2023-08-24T11:25:59;96017.88;;;35.04;100.00
11198;BME280;5655;48.744;9.162;2023-08-24T11:28:27;96023.16;;;35.34;100.00
11198;BME280;5655;48.744;9.162;2023-08-24T11:30:54;96009.44;;;35.10;100.00
11198;BME280;5655;48.744;9.162;2023-08-24T11:33:33;96007.97;;;35.35;100.00
11198;BME280;5655;48.744;9.162;2023-08-24T11:35:59;96000.56;;;35.12;100.00
11198;BME280;5655;48.744;9.162;2023-08-24T11:38:35;95989.84;;;35.55;100.00
11198;BME280;5655;48.744;9.162;2023-08-24T11:41:00;95993.38;;;35.42;100.00
11198;BME280;5655;48.744;9.162;2023-08-24T11:43:26;95997.94;;;35.79;100.00
11198;BME280;5655;48.744;9.162;2023-08-24T11:45:54;95995.09;;;35.72;100.00
11198;BME280;5655;48.744;9.162;2023-08-24T11:48:24;95985.78;;;35.90;100.00
11198;BME280;5655;48.744;9.162;2023-08-24T11:50:50;95989.66;;;35.87;100.00
11198;BME280;5655;48.744;9.162;2023-08-24T11:53:17;95990.50;;;35.95;100.00
11198;BME280;5655;48.744;9.162;2023-08-24T11:55:42;95993.84;;;35.20;100.00
11198;BME280;5655;48.744;9.162;2023-08-24T11:58:14;95996.69;;;36.14;100.00
11198;BME280;5655;48.744;9.162;2023-08-24T12:00:40;95994.38;;;35.92;100.00
11198;BME280;5655;48.744;9.162;2023-08-24T12:03:06;95989.50;;;36.39;100.00
11198;BME280;5655;48.744;9.162;2023-08-24T12:05:31;95997.63;;;35.83;100.00
11198;BME280;5655;48.744;9.162;2023-08-24T12:07:56;95993.84;;;36.48;100.00
11198;BME280;5655;48.744;9.162;2023-08-24T12:10:22;95993.97;;;35.88;100.00
11198;BME280;5655;48.744;9.162;2023-08-24T12:12:47;95984.19;;;35.21;100.00
11198;BME280;5655;48.744;9.162;2023-08-24T12:15:19;95981.41;;;35.34;100.00
11198;BME280;5655;48.744;9.162;2023-08-24T12:17:46;95978.41;;;35.32;100.00
11198;BME280;5655;48.744;9.162;2023-08-24T12:20:22;95976.13;;;35.57;100.00
11198;BME280;5655;48.744;9.162;2023-08-24T12:22:54;95969.41;;;35.39;100.00
11198;BME280;5655;48.744;9.162;2023-08-24T12:25:24;95961.41;;;35.83;100.00
11198;BME280;5655;48.744;9.162;2023-08-24T12:27:54;95945.28;;;36.23;100.00
11198;BME280;5655;48.744;9.162;2023-08-24T12:30:33;95937.03;;;36.38;100.00
11198;BME280;5655;48.744;9.162;2023-08-24T12:33:07;95935.00;;;36.38;100.00
11198;BME280;5655;48.744;9.162;2023-08-24T12:35:33;95936.81;;;36.77;100.00
11198;BME280;5655;48.744;9.162;2023-08-24T12:37:58;95925.00;;;36.92;100.00
11198;BME280;5655;48.744;9.162;2023-08-24T12:40:23;95925.09;;;37.07;100.00
11198;BME280;5655;48.744;9.162;2023-08-24T12:42:50;95912.47;;;36.57;100.00
11198;BME280;5655;48.744;9.162;2023-08-24T12:45:15;95906.06;;;36.70;100.00
11198;BME280;5655;48.744;9.162;2023-08-24T12:47:41;95898.72;;;36.80;100.00
11198;BME280;5655;48.744;9.162;2023-08-24T12:50:06;95891.41;;;36.77;100.00
11198;BME280;5655;48.744;9.162;2023-08-24T12:52:32;95890.78;;;36.99;100.00
11198;BME280;5655;48.744;9.162;2023-08-24T12:54:57;95892.19;;;36.85;100.00
11198;BME280;5655;48.744;9.162;2023-08-24T12:57:23;95893.09;;;37.52;100.00
11198;BME280;5655;48.744;9.162;2023-08-24T12:59:49;95894.06;;;37.62;97.06
11198;BME280;5655;48.744;9.162;2023-08-24T13:02:15;95891.84;;;37.68;96.32
11198;BME280;5655;48.744;9.162;2023-08-24T13:04:40;95889.25;;;37.70;95.53
11198;BME280;5655;48.744;9.162;2023-08-24T13:07:05;95871.69;;;37.54;96.81